Time;durP1;ratioP1;P1;durP2;ratioP2;P2;SDS_P1;SDS_P2;PMS_P1;PMS_P2;Temp;Humidity;BMP_temperature;BMP_pressure;BME280_temperature;BME280_humidity;BME280_pressure;Samples;Min_cycle;Max_cycle;Signal;HPM_P1;HPM_P2
2022/04/22 00:08:32;;;;;;;3.13;1.10;;;13.10;99.90;;;;;;20903715;28;20400;-39
2022/04/22 00:18:34;;;;;;;2.42;1.05;;;12.90;99.90;;;;;;20903288;28;20036;-38
2022/04/22 00:28:35;;;;;;;1.73;0.70;;;12.80;99.90;;;;;;20919585;28;20039;-39
2022/04/22 00:38:36;;;;;;;3.47;1.30;;;12.80;99.90;;;;;;20926652;28;20039;-39
2022/04/22 00:48:38;;;;;;;3.08;1.25;;;12.60;99.90;;;;;;20915496;28;20180;-39
2022/04/22 00:58:42;;;;;;;3.97;1.42;;;12.50;99.90;;;;;;20918174;28;20055;-38
2022/04/22 01:19:03;;;;;;;4.55;1.25;;;12.10;99.90;;;;;;20912855;28;20092;-38
2022/04/22 01:29:06;;;;;;;3.90;1.48;;;12.10;99.90;;;;;;20915623;28;20051;-38
2022/04/22 01:39:07;;;;;;;3.67;1.63;;;12.10;99.90;;;;;;20919035;28;20048;-38
2022/04/22 01:49:08;;;;;;;2.63;1.10;;;11.90;99.90;;;;;;20909948;28;20040;-38
2022/04/22 01:59:09;;;;;;;3.28;1.65;;;11.90;99.90;;;;;;20896134;28;20041;-38
2022/04/22 02:09:11;;;;;;;2.90;1.02;;;11.80;99.90;;;;;;20920856;28;20048;-38
2022/04/22 02:19:12;;;;;;;2.55;1.23;;;11.80;99.90;;;;;;20894036;28;20037;-38
2022/04/22 02:29:13;;;;;;;2.90;1.20;;;11.60;99.90;;;;;;20897785;28;20479;-38
2022/04/22 02:39:14;;;;;;;5.57;1.80;;;11.40;99.90;;;;;;20913918;28;20063;-38
2022/04/22 02:49:15;;;;;;;1.75;0.93;;;11.20;99.90;;;;;;20886642;28;20047;-38
2022/04/22 02:59:18;;;;;;;5.75;3.08;;;11.20;99.90;;;;;;20892619;28;20051;-38
2022/04/22 03:09:19;;;;;;;2.30;0.95;;;11.10;99.90;;;;;;20899457;28;20079;-38
2022/04/22 03:19:20;;;;;;;3.05;1.27;;;11.00;99.90;;;;;;20913413;28;20033;-38
2022/04/22 03:29:22;;;;;;;3.58;1.52;;;11.00;99.90;;;;;;20916659;28;20041;-38
2022/04/22 03:39:23;;;;;;;4.25;1.67;;;11.00;99.90;;;;;;20886996;28;20044;-38
2022/04/22 03:49:24;;;;;;;5.90;1.45;;;10.90;99.90;;;;;;20910341;28;20036;-38
2022/04/22 03:59:25;;;;;;;3.38;1.25;;;10.90;99.90;;;;;;20898459;28;20089;-38
2022/04/22 04:30:07;;;;;;;3.00;1.35;;;10.60;99.90;;;;;;20905849;28;20445;-38
2022/04/22 04:40:10;;;;;;;4.85;1.70;;;10.50;99.90;;;;;;20893599;28;20044;-38
2022/04/22 04:50:12;;;;;;;4.78;1.33;;;10.40;99.90;;;;;;20899632;28;20726;-38
2022/04/22 05:00:14;;;;;;;5.30;1.80;;;10.30;99.90;;;;;;20924605;28;20368;-38
2022/04/22 05:10:17;;;;;;;3.72;1.85;;;10.30;99.90;;;;;;20916714;28;20044;-38
2022/04/22 05:20:21;;;;;;;5.50;1.85;;;10.20;99.90;;;;;;20901207;28;20029;-38
2022/04/22 05:40:44;;;;;;;5.00;2.22;;;10.30;99.90;;;;;;20925800;28;20279;-38
2022/04/22 05:50:45;;;;;;;4.28;2.03;;;10.70;99.90;;;;;;20920606;28;20048;-38
2022/04/22 06:00:47;;;;;;;5.40;1.73;;;11.10;99.90;;;;;;20919780;28;20376;-38
2022/04/22 06:10:48;;;;;;;6.35;3.08;;;11.30;99.90;;;;;;20887959;28;20060;-38
2022/04/22 06:20:51;;;;;;;4.90;2.30;;;11.40;99.90;;;;;;20902893;28;20041;-38
2022/04/22 06:30:52;;;;;;;7.13;2.97;;;11.50;99.90;;;;;;20841815;28;20690;-38
2022/04/22 06:51:17;;;;;;;9.60;3.47;;;12.00;99.90;;;;;;20858277;28;20052;-38
2022/04/22 07:01:19;;;;;;;7.93;3.17;;;12.20;99.90;;;;;;20883784;28;20028;-38
2022/04/22 07:11:28;;;;;;;6.63;3.13;;;12.30;99.90;;;;;;20882821;28;20528;-38
2022/04/22 07:21:29;;;;;;;11.10;3.83;;;12.60;99.90;;;;;;20882434;28;20045;-38
2022/04/22 07:31:31;;;;;;;5.22;2.72;;;12.70;99.90;;;;;;20853588;28;20036;-38
2022/04/22 07:41:34;;;;;;;6.22;2.63;;;12.80;99.90;;;;;;20857877;28;20033;-38
2022/04/22 07:51:35;;;;;;;5.55;2.58;;;12.80;99.90;;;;;;20832583;28;20441;-40
2022/04/22 08:01:36;;;;;;;4.38;2.03;;;13.10;99.90;;;;;;20880858;28;20044;-38
2022/04/22 08:11:37;;;;;;;5.35;2.17;;;13.20;99.90;;;;;;20885405;28;20047;-38
2022/04/22 08:21:38;;;;;;;4.65;2.20;;;13.60;99.90;;;;;;20902293;28;20044;-38
2022/04/22 08:31:39;;;;;;;4.03;2.42;;;13.70;99.90;;;;;;20881190;28;20037;-38
2022/04/22 08:41:43;;;;;;;5.80;2.97;;;14.00;99.90;;;;;;20904659;28;20040;-38
2022/04/22 08:51:44;;;;;;;3.83;1.60;;;14.50;99.90;;;;;;20916767;28;20048;-38
2022/04/22 09:01:45;;;;;;;7.20;2.53;;;14.90;99.90;;;;;;20916726;28;20044;-38
2022/04/22 09:11:47;;;;;;;4.60;1.85;;;15.10;99.90;;;;;;20903122;28;20052;-38
2022/04/22 09:21:57;;;;;;;4.80;1.67;;;15.10;99.90;;;;;;20925431;28;20509;-38
2022/04/22 09:31:58;;;;;;;4.63;2.08;;;15.00;99.90;;;;;;20896904;28;20470;-38
2022/04/22 09:52:30;;;;;;;4.72;1.90;;;15.50;99.90;;;;;;20911391;28;20391;-39
2022/04/22 10:02:31;;;;;;;9.95;1.88;;;16.00;99.90;;;;;;20932087;28;20044;-38
2022/04/22 10:12:36;;;;;;;10.77;1.58;;;16.60;99.90;;;;;;20906213;28;20041;-39
2022/04/22 10:22:37;;;;;;;3.58;1.52;;;17.00;99.90;;;;;;20920761;28;20036;-38
2022/04/22 10:32:41;;;;;;;4.45;1.30;;;17.40;99.90;;;;;;20909537;28;20135;-38
2022/04/22 10:42:43;;;;;;;3.28;1.55;;;17.50;99.90;;;;;;20924177;28;20483;-39
2022/04/22 10:53:04;;;;;;;3.55;1.58;;;17.70;99.90;;;;;;20889936;28;20139;-40
2022/04/22 11:03:13;;;;;;;3.17;1.30;;;17.90;99.90;;;;;;20813852;28;20119;-39
2022/04/22 11:13:30;;;;;;;3.35;1.10;;;17.30;99.90;;;;;;20911795;28;20048;-39
2022/04/22 11:23:40;;;;;;;5.00;1.30;;;17.50;99.90;;;;;;20911504;28;20041;-39
2022/04/22 11:33:57;;;;;;;3.38;1.30;;;17.60;99.90;;;;;;20899667;28;20060;-39
2022/04/22 11:43:58;;;;;;;2.78;1.40;;;17.70;99.90;;;;;;20906491;28;21579;-39
2022/04/22 11:54:01;;;;;;;1.77;0.90;;;18.50;99.90;;;;;;20887661;28;20040;-40
2022/04/22 12:14:30;;;;;;;1.98;0.90;;;19.40;97.00;;;;;;20882105;28;20051;-40
2022/04/22 12:24:31;;;;;;;1.95;0.85;;;19.60;94.90;;;;;;20889704;28;20033;-39
2022/04/22 12:34:35;;;;;;;1.05;0.60;;;19.50;93.90;;;;;;20871718;28;20507;-40
2022/04/22 12:44:36;;;;;;;1.38;0.70;;;20.00;93.70;;;;;;20903561;28;20033;-40
2022/04/22 12:54:38;;;;;;;1.55;0.65;;;19.90;91.60;;;;;;20902404;28;20510;-40
2022/04/22 13:04:50;;;;;;;2.33;0.77;;;19.90;92.00;;;;;;20932732;28;20049;-40
2022/04/22 13:14:53;;;;;;;2.95;0.77;;;19.80;92.10;;;;;;20899919;28;20028;-40
2022/04/22 13:24:54;;;;;;;2.20;0.95;;;20.40;89.60;;;;;;20916807;28;20559;-39
2022/04/22 13:34:56;;;;;;;1.83;0.77;;;19.80;90.00;;;;;;20919359;28;20037;-40
2022/04/22 13:55:16;;;;;;;1.70;0.60;;;20.50;87.20;;;;;;20915431;28;20550;-40
2022/04/22 14:05:21;;;;;;;2.90;1.17;;;20.80;87.00;;;;;;20897869;28;20150;-40
2022/04/22 14:15:22;;;;;;;2.45;0.80;;;20.20;87.90;;;;;;20909998;28;20219;-40
2022/04/22 14:25:23;;;;;;;1.63;0.60;;;19.40;88.10;;;;;;20896021;28;20036;-40
2022/04/22 14:35:24;;;;;;;2.63;0.57;;;19.10;90.20;;;;;;20911065;28;20079;-40
2022/04/22 14:45:28;;;;;;;3.28;1.17;;;19.10;90.30;;;;;;20901153;28;20476;-39
2022/04/22 14:55:29;;;;;;;1.30;0.60;;;18.80;90.90;;;;;;20908045;28;20607;-39
2022/04/22 15:05:30;;;;;;;1.27;0.65;;;18.60;90.20;;;;;;20890192;28;20048;-39
2022/04/22 15:15:31;;;;;;;1.30;0.52;;;18.60;90.20;;;;;;20924203;28;20040;-40
2022/04/22 15:25:33;;;;;;;3.80;0.95;;;18.20;91.40;;;;;;20900399;28;20495;-39
2022/04/22 15:35:34;;;;;;;2.13;1.02;;;18.20;91.00;;;;;;20896650;28;20045;-39
2022/04/22 15:45:36;;;;;;;3.05;0.90;;;18.30;91.40;;;;;;20909634;28;20153;-39
2022/04/22 15:55:37;;;;;;;5.00;1.25;;;17.90;92.80;;;;;;20918143;28;20051;-40
2022/04/22 16:05:41;;;;;;;3.50;1.02;;;17.90;92.40;;;;;;20901977;28;20055;-39
2022/04/22 16:15:42;;;;;;;3.30;0.80;;;17.70;93.10;;;;;;20912547;28;20425;-40
2022/04/22 16:25:43;;;;;;;2.20;1.13;;;17.70;93.30;;;;;;20929556;28;20490;-40
2022/04/22 16:35:44;;;;;;;2.17;1.05;;;17.50;93.70;;;;;;20916569;28;20453;-40
2022/04/22 16:45:45;;;;;;;1.77;0.75;;;17.40;93.90;;;;;;20915325;28;20044;-39
2022/04/22 16:55:46;;;;;;;4.80;0.90;;;17.40;94.00;;;;;;20919076;28;20670;-39
2022/04/22 17:05:48;;;;;;;2.47;1.10;;;17.40;94.10;;;;;;20927732;28;20415;-39
2022/04/22 17:26:14;;;;;;;2.58;0.95;;;17.10;94.60;;;;;;20917477;28;20498;-40
2022/04/22 17:36:15;;;;;;;3.47;1.45;;;17.20;95.00;;;;;;20925376;28;20049;-40
2022/04/22 17:46:16;;;;;;;4.75;1.60;;;17.20;95.40;;;;;;20926116;28;20106;-40
2022/04/22 17:56:17;;;;;;;4.20;1.27;;;17.10;95.40;;;;;;20913565;28;20029;-40
2022/04/22 18:06:18;;;;;;;4.30;1.80;;;17.00;95.90;;;;;;20914106;28;20392;-39
2022/04/22 18:16:21;;;;;;;4.55;1.52;;;17.00;95.70;;;;;;20932963;28;20036;-39
2022/04/22 18:26:22;;;;;;;4.95;1.55;;;16.70;95.50;;;;;;20937564;28;20499;-39
2022/04/22 18:36:23;;;;;;;3.50;1.50;;;16.50;95.70;;;;;;20919817;28;20032;-39
2022/04/22 18:46:25;;;;;;;5.15;2.38;;;16.30;95.90;;;;;;20915880;28;20106;-40
2022/04/22 18:56:26;;;;;;;3.55;1.73;;;16.20;96.60;;;;;;20904546;28;20528;-39
2022/04/22 19:06:27;;;;;;;4.78;1.58;;;16.00;96.80;;;;;;20911447;28;20063;-39
2022/04/22 19:16:28;;;;;;;2.47;1.10;;;15.80;97.70;;;;;;20924493;28;20039;-40
2022/04/22 19:26:31;;;;;;;4.18;2.50;;;15.60;98.30;;;;;;20901409;28;20032;-39
2022/04/22 19:46:52;;;;;;;3.25;1.67;;;15.30;99.60;;;;;;20915709;28;20043;-39
2022/04/22 19:56:53;;;;;;;2.75;1.33;;;15.20;99.90;;;;;;20939637;28;20037;-40
2022/04/22 20:06:54;;;;;;;3.00;1.63;;;14.90;99.90;;;;;;20919933;28;20045;-40
2022/04/22 20:16:56;;;;;;;2.90;1.17;;;14.70;99.90;;;;;;20928696;28;20028;-39
2022/04/22 20:26:57;;;;;;;3.28;1.58;;;14.50;99.90;;;;;;20933813;28;20328;-40
2022/04/22 20:47:18;;;;;;;4.55;1.25;;;14.30;99.90;;;;;;20943600;28;20139;-39
2022/04/22 20:57:19;;;;;;;6.70;2.47;;;14.20;99.90;;;;;;20957820;28;20036;-39
2022/04/22 21:07:20;;;;;;;2.85;1.13;;;14.20;99.90;;;;;;20948111;28;20509;-39
2022/04/22 21:17:21;;;;;;;1.67;1.00;;;14.20;99.90;;;;;;20925594;28;20495;-40
2022/04/22 21:27:23;;;;;;;2.88;1.20;;;14.10;99.90;;;;;;20932726;28;20049;-39
2022/04/22 21:37:24;;;;;;;3.05;1.50;;;14.00;99.90;;;;;;20947209;28;20094;-39
2022/04/22 21:47:25;;;;;;;2.17;1.42;;;14.00;99.90;;;;;;20936269;28;20512;-39
2022/04/22 21:57:27;;;;;;;2.92;1.48;;;13.90;99.90;;;;;;20942426;28;20063;-40
2022/04/22 22:07:28;;;;;;;2.67;1.30;;;13.80;99.90;;;;;;20937740;28;20061;-40
2022/04/22 22:17:30;;;;;;;2.45;1.10;;;13.80;99.90;;;;;;20908351;28;20036;-39
2022/04/22 22:27:38;;;;;;;1.90;1.05;;;13.70;99.90;;;;;;20919288;28;20058;-39
2022/04/22 22:37:39;;;;;;;2.75;1.20;;;13.70;99.90;;;;;;20927905;28;20094;-39
2022/04/22 22:47:41;;;;;;;3.97;1.02;;;13.60;99.90;;;;;;20914380;28;20496;-39
2022/04/22 22:57:43;;;;;;;2.85;1.35;;;13.50;99.90;;;;;;20921282;28;20128;-40
2022/04/22 23:07:44;;;;;;;4.57;1.13;;;13.40;99.90;;;;;;20923327;28;20290;-40
2022/04/22 23:17:45;;;;;;;2.95;1.23;;;13.40;99.90;;;;;;20907474;28;20040;-39
2022/04/22 23:27:47;;;;;;;2.70;1.10;;;13.20;99.90;;;;;;20924618;28;20039;-39
2022/04/22 23:37:48;;;;;;;1.77;0.93;;;13.20;99.90;;;;;;20921233;28;20453;-39
2022/04/22 23:47:49;;;;;;;4.15;1.25;;;13.00;99.90;;;;;;20912836;28;20045;-39
2022/04/22 23:57:51;;;;;;;2.33;1.20;;;12.80;99.90;;;;;;20903120;28;20041;-39
